CW0454 Weather Reports


Display with metric or nautical units.
time (UTC)temp
F
wind
direction
speed
MPH
gust
MPH
rain 1hr
in
rain 24hr
in
rain mn
in
humidity
%
barometer
mb
20260831075403 72 117 0.0 0.0 0.00 0.02 0.00 96 1017.2
20260831074402 72 117 0.0 0.0 0.00 0.02 0.00 96 1017.3
20260831073403 72 117 0.0 0.0 0.00 0.02 0.00 96 1017.3
20260831072402 72 117 0.0 0.0 0.00 0.02 0.00 96 1017.4
20260831071403 72 117 0.0 0.0 0.00 0.02 0.00 96 1017.3
20260831070403 72 117 0.0 0.0 0.00 0.02 0.00 96 1017.3
20260831065402 72 117 0.0 0.0 0.00 0.02 0.00 96 1017.4
20260831064404 72 117 0.0 0.0 0.00 0.02 0.00 96 1017.4
20260831063403 72 117 0.0 0.0 0.00 0.02 0.00 96 1017.4
20260831062402 72 117 0.0 0.0 0.00 0.02 0.00 96 1017.4
20260831060359 73 117 0.0 0.0 0.00 0.02 0.00 96 1017.6
20260831055358 73 117 0.0 0.0 0.00 0.02 0.00 96 1017.7
20260831054400 73 117 0.0 0.0 0.00 0.02 0.00 96 1017.8
20260831053358 73 117 0.0 0.0 0.00 0.02 0.00 95 1017.6
20260831052358 73 117 0.0 0.0 0.00 0.02 0.00 95 1017.6
20260831051358 73 117 0.0 0.0 0.00 0.02 0.00 95 1017.5
20260831050359 73 117 0.0 0.0 0.00 0.02 0.00 95 1017.5
20260831045358 73 117 0.0 0.0 0.00 0.02 0.00 95 1017.6
20260831044419 74 117 0.0 0.0 0.00 0.02 0.00 95 1017.6
20260831043359 74 117 0.0 0.0 0.00 0.02 0.00 95 1017.6
20260831042419 74 117 0.0 0.0 0.00 0.02 0.00 95 1017.7
20260831041400 74 117 0.0 0.0 0.00 0.02 0.00 95 1017.7
20260831040359 74 117 0.0 0.0 0.00 0.04 0.02 95 1017.8
20260831035358 74 117 0.0 0.0 0.00 0.02 0.02 95 1017.7
20260831034359 74 117 0.0 0.0 0.00 0.02 0.02 95 1017.8
20260831033359 74 117 0.0 0.0 0.00 0.02 0.02 95 1017.7
20260831032419 74 117 0.0 0.0 0.00 0.02 0.02 95 1017.9
20260831031359 75 117 0.0 0.0 0.00 0.02 0.02 95 1017.9
20260831030420 75 117 0.0 2.0 0.00 0.02 0.02 94 1017.9
20260831025358 75 117 0.0 0.0 0.00 0.02 0.02 95 1018.0
20260831024421 75 117 0.0 0.0 0.00 0.02 0.02 94 1018.1
20260831023359 76 117 0.0 0.0 0.00 0.02 0.02 95 1018.0
20260831022359 76 117 0.0 0.0 0.00 0.02 0.02 94 1018.2
20260831021359 76 117 0.0 1.0 0.00 0.02 0.02 94 1018.1
20260831020358 76 117 0.0 1.0 0.00 0.02 0.02 94 1018.1
20260831015420 77 117 0.0 2.0 0.00 0.02 0.02 94 1018.2
20260831014359 77 117 0.0 2.0 0.00 0.02 0.02 94 1018.3
20260831013359 77 117 0.0 0.0 0.00 0.02 0.02 94 1018.2
20260831012359 77 117 0.0 0.0 0.00 0.02 0.02 93 1018.2
20260831011359 77 117 0.0 4.0 0.00 0.02 0.02 93 1018.0
20260831010359 78 117 0.0 3.0 0.00 0.02 0.02 93 1018.0
20260831005359 78 117 1.0 3.0 0.01 0.02 0.02 93 1017.9
20260831004359 78 118 1.0 4.0 0.01 0.02 0.02 92 1017.9
20260831003359 78 119 0.0 2.0 0.01 0.02 0.02 92 1017.9
20260831002359 78 119 0.0 0.0 0.00 0.01 0.01 92 1017.6
20260831001359 78 118 0.0 4.0 0.00 0.01 0.01 91 1017.5
20260831000359 78 128 2.0 5.0 0.00 0.01 0.01 91 1017.3
20260830235359 78 115 2.0 7.0 0.00 0.01 0.01 90 1017.3
20260830234359 79 111 1.0 3.0 0.00 0.01 0.01 90 1017.3
20260830233359 79 111 1.0 3.0 0.00 0.01 0.01 89 1017.3
20260830232359 80 111 1.0 3.0 0.00 0.01 0.01 89 1017.4
20260830231359 80 111 1.0 3.0 0.00 0.01 0.01 88 1017.5
20260830230359 81 112 0.0 5.0 0.00 0.01 0.01 88 1017.6
20260830225421 82 121 1.0 5.0 0.00 0.00 0.00 85 1017.5
20260830224359 83 127 3.0 7.0 0.00 0.00 0.00 82 1017.4
20260830223400 83 120 2.0 8.0 0.00 0.00 0.00 80 1017.4
20260830222359 84 101 2.0 9.0 0.00 0.00 0.00 79 1017.3
20260830221400 84 122 2.0 9.0 0.00 0.00 0.00 79 1017.3
20260830220401 84 118 2.0 9.0 0.00 0.00 0.00 78 1017.3
20260830215359 85 105 3.0 8.0 0.00 0.00 0.00 76 1017.2
20260830214400 85 98 4.0 9.0 0.00 0.00 0.00 74 1017.2
20260830213359 86 113 2.0 4.0 0.00 0.00 0.00 70 1017.0
20260830212421 87 117 1.0 5.0 0.00 0.00 0.00 68 1017.1
20260830211400 88 233 2.0 6.0 0.00 0.00 0.00 67 1017.1
20260830210400 88 141 3.0 7.0 0.00 0.00 0.00 66 1017.1
20260830205359 87 161 3.0 10.0 0.00 0.00 0.00 67 1017.3
20260830204400 89 261 1.0 10.0 0.00 0.00 0.00 65 1017.3
20260830203359 89 233 2.0 7.0 0.00 0.00 0.00 64 1017.3
20260830202400 89 128 5.0 11.0 0.00 0.00 0.00 63 1017.3
20260830201400 90 272 3.0 6.0 0.00 0.00 0.00 63 1017.1
20260830200400 90 163 2.0 7.0 0.00 0.00 0.00 62 1017.2
20260830195400 89 225 6.0 9.0 0.00 0.00 0.00 62 1017.5
20260830194400 89 252 5.0 11.0 0.00 0.00 0.00 64 1017.7
20260830193400 89 113 1.0 6.0 0.00 0.00 0.00 67 1017.8
20260830192400 89 124 3.0 9.0 0.00 0.00 0.00 65 1018.0
20260830191422 89 134 2.0 9.0 0.00 0.00 0.00 67 1018.1
20260830190400 88 202 2.0 8.0 0.00 0.00 0.00 67 1018.3
20260830185400 87 185 3.0 9.0 0.00 0.00 0.00 67 1018.5
20260830184400 88 170 3.0 10.0 0.00 0.00 0.00 65 1018.5
20260830183400 88 197 2.0 11.0 0.00 0.00 0.00 69 1018.6
20260830182401 87 258 2.0 11.0 0.00 0.00 0.00 69 1018.8
20260830181421 86 156 3.0 12.0 0.00 0.00 0.00 69 1019.1
20260830180401 87 69 4.0 12.0 0.00 0.00 0.00 69 1019.0
20260830175400 87 183 3.0 9.0 0.00 0.00 0.00 70 1019.1
20260830174400 86 209 2.0 10.0 0.00 0.00 0.00 70 1019.3
20260830173400 86 130 4.0 11.0 0.00 0.00 0.00 71 1019.6
20260830172401 85 176 3.0 8.0 0.00 0.00 0.00 72 1019.8
20260830171400 86 156 3.0 10.0 0.00 0.00 0.00 72 1019.9
20260830170422 86 82 2.0 11.0 0.00 0.00 0.00 73 1019.8
20260830165422 85 212 3.0 9.0 0.00 0.00 0.00 74 1020.0
20260830164422 85 191 4.0 12.0 0.00 0.00 0.00 73 1020.3
20260830163401 85 172 3.0 9.0 0.00 0.00 0.00 75 1020.3
20260830162401 84 145 3.0 8.0 0.00 0.00 0.00 77 1020.4
20260830161401 83 178 2.0 9.0 0.00 0.00 0.00 78 1020.6
20260830160401 83 159 2.0 7.0 0.00 0.00 0.00 78 1020.6
20260830155400 83 130 3.0 9.0 0.00 0.00 0.00 79 1020.7
20260830154401 82 267 3.0 6.0 0.00 0.00 0.00 80 1020.7
20260830153401 81 124 4.0 8.0 0.00 0.00 0.00 80 1020.8
20260830152401 81 123 4.0 9.0 0.00 0.00 0.00 82 1020.7
20260830151401 81 64 2.0 7.0 0.00 0.00 0.00 83 1020.6
20260830150423 80 122 2.0 8.0 0.00 0.00 0.00 83 1020.6
20260830145401 80 185 4.0 9.0 0.00 0.00 0.00 84 1020.7
20260830144401 79 98 2.0 10.0 0.00 0.00 0.00 86 1020.7
20260830143401 79 199 4.0 8.0 0.00 0.00 0.00 85 1020.9
20260830142401 79 262 2.0 13.0 0.00 0.00 0.00 86 1020.8
20260830141401 78 125 5.0 10.0 0.00 0.00 0.00 87 1020.7
20260830140422 78 179 3.0 10.0 0.00 0.00 0.00 88 1020.8
20260830135401 78 190 4.0 10.0 0.00 0.00 0.00 89 1020.9
20260830134402 77 130 3.0 11.0 0.00 0.00 0.00 90 1021.1
20260830133401 76 123 5.0 12.0 0.00 0.00 0.00 91 1021.2
20260830132401 75 147 2.0 10.0 0.00 0.00 0.00 92 1021.4
20260830131426 75 130 4.0 10.0 0.00 0.00 0.00 92 1021.6
20260830130402 75 124 2.0 7.0 0.00 0.00 0.00 93 1021.7
20260830125402 74 204 2.0 6.0 0.00 0.00 0.00 94 1021.9
20260830124402 74 200 2.0 6.0 0.00 0.00 0.00 95 1021.9
20260830123401 73 123 3.0 6.0 0.00 0.00 0.00 96 1022.0
20260830122403 72 199 2.0 7.0 0.00 0.00 0.00 96 1022.0
20260830121401 72 195 1.0 7.0 0.00 0.00 0.00 96 1022.0
20260830120402 71 192 0.0 6.0 0.00 0.00 0.00 97 1022.0
20260830115403 70 89 2.0 5.0 0.00 0.00 0.00 97 1022.0
20260830114401 70 215 1.0 4.0 0.00 0.00 0.00 97 1022.0
20260830113402 69 98 1.0 3.0 0.00 0.00 0.00 97 1022.0
20260830112401 68 89 1.0 2.0 0.00 0.00 0.00 96 1022.0
20260830111402 68 89 0.0 2.0 0.00 0.00 0.00 96 1022.0
20260830110422 68 89 0.0 0.0 0.00 0.00 0.00 96 1021.8
20260830105402 67 89 0.0 0.0 0.00 0.00 0.00 96 1022.0
20260830104402 67 89 0.0 1.0 0.00 0.00 0.00 96 1022.0
20260830102402 67 88 0.0 0.0 0.00 0.00 0.00 95 1021.7
20260830101422 67 88 0.0 0.0 0.00 0.00 0.00 95 1021.8
20260830100402 67 88 0.0 0.0 0.00 0.00 0.00 95 1021.8
20260830095403 67 88 0.0 0.0 0.00 0.00 0.00 95 1021.7
20260830094402 67 88 0.0 0.0 0.00 0.00 0.00 95 1021.8
20260830093423 67 88 0.0 0.0 0.00 0.00 0.00 95 1021.8
20260830092402 66 88 0.0 0.0 0.00 0.00 0.00 95 1021.7
20260830091402 66 88 0.0 0.0 0.00 0.00 0.00 95 1021.5
20260830090402 66 88 0.0 0.0 0.00 0.00 0.00 95 1021.3
20260830085402 66 88 0.0 0.0 0.00 0.00 0.00 95 1021.4
20260830084403 66 88 0.0 0.0 0.00 0.00 0.00 95 1021.6
20260830083402 66 88 0.0 0.0 0.00 0.00 0.00 95 1021.7
20260830082402 66 88 0.0 0.0 0.00 0.00 0.00 95 1021.7
20260830081402 66 88 0.0 0.0 0.00 0.00 0.00 95 1021.8
20260830080445 66 88 0.0 0.0 0.00 0.00 0.00 95 1021.6